createdAt,value
2018-08-12T00:02:55.409Z,13.50
2018-08-12T00:05:29.271Z,15.10
2018-08-12T00:07:57.841Z,13.80
2018-08-12T00:10:26.707Z,13.80
2018-08-12T00:12:55.185Z,13.80
2018-08-12T00:15:25.883Z,13.50
2018-08-12T00:17:54.394Z,14.70
2018-08-12T00:20:23.698Z,14.20
2018-08-12T00:25:23.851Z,14.60
2018-08-12T00:27:52.531Z,13.40
2018-08-12T00:32:49.329Z,13.00
2018-08-12T00:35:19.012Z,14.50
2018-08-12T00:37:47.637Z,13.40
2018-08-12T00:40:18.261Z,13.40
2018-08-12T00:42:47.168Z,14.40
2018-08-12T00:47:48.938Z,12.90
2018-08-12T00:50:20.290Z,12.90
2018-08-12T00:55:17.977Z,12.90
2018-08-12T01:02:45.520Z,13.40
2018-08-12T01:07:44.769Z,12.40
2018-08-12T01:12:42.152Z,13.30
2018-08-12T01:17:43.385Z,12.50
2018-08-12T01:20:13.897Z,12.90
2018-08-12T01:22:43.311Z,13.30
2018-08-12T01:25:12.212Z,13.10
2018-08-12T01:27:40.766Z,13.20
2018-08-12T01:30:11.838Z,12.70
2018-08-12T01:32:41.220Z,12.50
2018-08-12T01:35:10.935Z,12.90
2018-08-12T01:42:38.287Z,13.20
2018-08-12T01:45:07.238Z,12.80
2018-08-12T01:47:35.783Z,13.30
2018-08-12T01:50:09.638Z,12.30
2018-08-12T01:52:38.115Z,12.40
2018-08-12T01:55:06.790Z,12.80
2018-08-12T02:00:05.028Z,12.20
2018-08-12T02:02:33.547Z,12.60
2018-08-12T02:05:02.138Z,12.30
2018-08-12T02:07:33.092Z,11.70
2018-08-12T02:10:01.662Z,12.30
2018-08-12T02:12:30.111Z,12.70
2018-08-12T02:14:58.992Z,12.80
2018-08-12T02:17:27.401Z,11.90
2018-08-12T02:19:55.808Z,12.10
2018-08-12T02:22:25.782Z,12.40
2018-08-12T02:24:54.300Z,12.70
2018-08-12T02:27:22.775Z,12.30
2018-08-12T02:29:51.203Z,11.70
2018-08-12T02:32:20.430Z,12.10
2018-08-12T02:34:48.878Z,11.70
2018-08-12T02:37:17.420Z,12.50
2018-08-12T02:39:45.920Z,11.70
2018-08-12T02:42:14.390Z,9.70
2018-08-12T02:44:42.876Z,12.40
2018-08-12T02:49:40.115Z,12.20
2018-08-12T02:52:08.685Z,11.60
2018-08-12T02:59:33.565Z,11.50
2018-08-12T03:02:02.105Z,12.00
2018-08-12T03:06:59.705Z,12.00
2018-08-12T03:09:28.122Z,12.70
2018-08-12T03:14:28.428Z,10.60
2018-08-12T03:16:56.917Z,11.90
2018-08-12T03:19:27.957Z,11.20
2018-08-12T03:24:24.595Z,11.90
2018-08-12T03:31:49.479Z,11.30
2018-08-12T03:34:18.059Z,11.50
2018-08-12T03:36:48.199Z,11.20
2018-08-12T03:39:16.669Z,11.30
2018-08-12T03:44:14.859Z,14.20
2018-08-12T03:46:43.269Z,12.20
2018-08-12T03:51:39.897Z,11.60
2018-08-12T03:54:10.286Z,11.40
2018-08-12T03:56:38.890Z,11.50
2018-08-12T03:59:07.350Z,12.40
2018-08-12T04:01:38.106Z,11.90
2018-08-12T04:06:34.859Z,11.50
2018-08-12T04:11:33.223Z,11.10
2018-08-12T04:16:30.146Z,10.50
2018-08-12T04:18:58.645Z,11.30
2018-08-12T04:21:27.264Z,11.40
2018-08-12T04:23:55.690Z,13.40
2018-08-12T04:26:25.559Z,11.60
2018-08-12T04:28:54.094Z,11.10
2018-08-12T04:31:22.626Z,13.20
2018-08-12T04:33:52.471Z,11.30
2018-08-12T04:36:20.955Z,10.90
2018-08-12T04:38:49.407Z,11.90
2018-08-12T04:43:47.620Z,10.40
2018-08-12T04:46:16.157Z,10.90
2018-08-12T04:48:44.682Z,12.00
2018-08-12T04:51:13.424Z,12.10
2018-08-12T04:53:41.904Z,11.70
2018-08-12T04:56:10.668Z,11.00
2018-08-12T04:58:39.230Z,11.10
2018-08-12T05:01:07.870Z,11.50
2018-08-12T05:03:36.605Z,11.40
2018-08-12T05:06:05.881Z,11.90
2018-08-12T05:08:35.008Z,13.00
2018-08-12T05:13:32.851Z,12.40
2018-08-12T05:16:01.381Z,12.50
2018-08-12T05:18:29.917Z,11.60
2018-08-12T05:23:27.438Z,12.80
2018-08-12T05:25:55.954Z,12.50
2018-08-12T05:28:24.505Z,12.50
2018-08-12T05:30:54.804Z,13.00
2018-08-12T05:33:23.409Z,12.70
2018-08-12T05:35:52.208Z,14.00
2018-08-12T05:38:22.358Z,13.00
2018-08-12T05:40:51.000Z,13.00
2018-08-12T05:43:19.495Z,14.00
2018-08-12T05:45:49.556Z,12.70
2018-08-12T05:48:18.057Z,13.50
2018-08-12T05:50:46.684Z,13.30
2018-08-12T05:53:15.152Z,14.00
2018-08-12T05:55:47.536Z,13.00
2018-08-12T05:58:16.114Z,13.70
2018-08-12T06:00:44.571Z,12.60
2018-08-12T06:03:14.242Z,13.60
2018-08-12T06:05:42.704Z,14.30
2018-08-12T06:08:11.278Z,16.50
2018-08-12T06:10:41.498Z,13.50
2018-08-12T06:13:10.041Z,15.50
2018-08-12T06:15:39.006Z,16.10
2018-08-12T06:18:07.520Z,15.80
2018-08-12T06:23:05.567Z,15.70
2018-08-12T06:25:36.201Z,15.10
2018-08-12T06:28:05.587Z,18.00
2018-08-12T06:30:34.057Z,16.00
2018-08-12T06:33:02.515Z,16.80
2018-08-12T06:35:32.545Z,16.70
2018-08-12T06:38:01.031Z,18.10
2018-08-12T06:42:58.998Z,18.10
2018-08-12T06:45:27.483Z,17.60
2018-08-12T06:47:55.941Z,17.60
2018-08-12T06:50:24.485Z,18.40
2018-08-12T06:52:54.057Z,19.80
2018-08-12T06:55:22.506Z,18.70
2018-08-12T06:57:51.012Z,18.70
2018-08-12T07:00:20.489Z,18.30
2018-08-12T07:02:49.491Z,19.10
2018-08-12T07:05:18.099Z,18.70
2018-08-12T07:07:51.173Z,18.80
2018-08-12T07:10:19.772Z,20.10
2018-08-12T07:12:48.270Z,19.50
2018-08-12T07:15:18.853Z,19.60
2018-08-12T07:17:48.535Z,18.40
2018-08-12T07:20:18.940Z,18.40
2018-08-12T07:22:50.452Z,19.10
2018-08-12T07:25:18.919Z,19.50
2018-08-12T07:27:47.423Z,21.10
2018-08-12T07:30:18.103Z,18.70
2018-08-12T07:32:46.670Z,21.10
2018-08-12T07:35:15.127Z,19.70
2018-08-12T07:37:44.890Z,19.80
2018-08-12T07:42:45.637Z,20.60
2018-08-12T07:45:14.185Z,20.60
2018-08-12T07:47:45.054Z,19.00
2018-08-12T07:50:13.665Z,19.90
2018-08-12T07:52:43.573Z,20.30
2018-08-12T07:55:13.270Z,19.70
2018-08-12T07:57:43.906Z,20.30
2018-08-12T08:00:16.731Z,21.30
2018-08-12T08:02:46.359Z,21.60
2018-08-12T08:05:16.227Z,22.80
2018-08-12T08:07:44.810Z,21.90
2018-08-12T08:12:43.063Z,23.70
2018-08-12T08:15:20.634Z,24.00
2018-08-12T08:17:49.545Z,23.90
2018-08-12T08:20:18.012Z,24.40
2018-08-12T08:25:15.514Z,26.10
2018-08-12T08:27:44.003Z,25.70
2018-08-12T08:30:15.602Z,25.10
2018-08-12T08:35:14.016Z,26.20
2018-08-12T08:37:42.932Z,25.60
2018-08-12T08:40:13.119Z,26.70
2018-08-12T08:42:48.052Z,27.20
2018-08-12T08:45:19.113Z,26.50
2018-08-12T08:47:48.901Z,27.00
2018-08-12T08:50:18.736Z,25.60
2018-08-12T08:52:48.425Z,27.60
2018-08-12T08:55:17.388Z,27.30
2018-08-12T08:57:47.101Z,28.40
2018-08-12T09:00:18.072Z,28.60
2018-08-12T09:02:48.274Z,27.80
2018-08-12T09:05:17.533Z,27.80
2018-08-12T09:07:46.260Z,28.20
2018-08-12T09:10:20.241Z,26.70
2018-08-12T09:12:48.811Z,27.40
2018-08-12T09:15:19.784Z,28.00
2018-08-12T09:17:49.071Z,28.60
2018-08-12T09:20:19.732Z,27.00
2018-08-12T09:22:48.255Z,28.50
2018-08-12T09:25:17.200Z,27.00
2018-08-12T09:27:47.532Z,28.70
2018-08-12T09:30:17.715Z,26.50
2018-08-12T09:32:46.936Z,26.70
2018-08-12T09:35:15.433Z,28.50
2018-08-12T09:37:44.938Z,29.30
2018-08-12T09:40:15.895Z,28.90
2018-08-12T09:42:47.016Z,30.10
2018-08-12T09:45:18.343Z,30.00
2018-08-12T09:47:47.774Z,29.00
2018-08-12T09:50:18.420Z,29.30
2018-08-12T09:52:47.803Z,30.00
2018-08-12T09:55:21.200Z,29.90
2018-08-12T09:57:49.740Z,29.90
2018-08-12T10:00:23.874Z,30.10
2018-08-12T10:02:55.131Z,30.30
2018-08-12T10:05:23.848Z,29.50
2018-08-12T10:07:52.338Z,30.20
2018-08-12T10:10:20.840Z,31.00
2018-08-12T10:12:49.971Z,30.70
2018-08-12T10:15:18.494Z,30.20
2018-08-12T10:17:50.808Z,30.60
2018-08-12T10:20:20.087Z,30.30
2018-08-12T10:22:48.663Z,30.50
2018-08-12T10:25:17.481Z,30.60
2018-08-12T10:27:46.373Z,30.70
2018-08-12T10:30:15.650Z,31.70
2018-08-12T10:32:44.275Z,30.70
2018-08-12T10:35:14.531Z,30.90
2018-08-12T10:37:43.661Z,30.50
2018-08-12T10:40:15.857Z,30.60
2018-08-12T10:42:45.338Z,31.00
2018-08-12T10:45:14.664Z,32.00
2018-08-12T10:47:45.482Z,31.80
2018-08-12T10:50:16.488Z,30.30
2018-08-12T10:52:45.855Z,30.60
2018-08-12T10:55:15.656Z,29.80
2018-08-12T10:57:47.161Z,31.80
2018-08-12T11:00:22.839Z,31.30
2018-08-12T11:02:52.411Z,31.30
2018-08-12T11:05:20.913Z,31.50
2018-08-12T11:07:58.576Z,32.00
2018-08-12T11:12:56.474Z,32.30
2018-08-12T11:15:25.026Z,31.80
2018-08-12T11:17:53.744Z,31.40
2018-08-12T11:20:22.402Z,30.10
2018-08-12T11:22:51.592Z,31.50
2018-08-12T11:25:20.343Z,31.60
2018-08-12T11:27:49.867Z,31.80
2018-08-12T11:30:18.811Z,30.90
2018-08-12T11:32:47.411Z,31.60
2018-08-12T11:35:17.330Z,31.10
2018-08-12T11:37:46.297Z,31.00
2018-08-12T11:40:15.505Z,31.70
2018-08-12T11:42:44.153Z,32.30
2018-08-12T11:45:15.891Z,32.10
2018-08-12T11:47:45.307Z,31.30
2018-08-12T11:50:14.576Z,32.10
2018-08-12T11:52:44.087Z,31.90
2018-08-12T11:55:18.103Z,31.10
2018-08-12T11:57:46.699Z,31.00
2018-08-12T12:00:18.030Z,30.60
2018-08-12T12:02:48.171Z,30.80
2018-08-12T12:05:18.225Z,31.20
2018-08-12T12:07:46.770Z,31.10
2018-08-12T12:10:17.468Z,31.00
2018-08-12T12:12:47.278Z,31.80
2018-08-12T12:15:18.349Z,31.20
2018-08-12T12:17:47.073Z,32.00
2018-08-12T12:20:16.270Z,31.30
2018-08-12T12:22:46.665Z,30.40
2018-08-12T12:25:17.460Z,32.90
2018-08-12T12:27:46.016Z,31.40
2018-08-12T12:30:17.023Z,31.90
2018-08-12T12:35:15.137Z,31.80
2018-08-12T12:37:43.910Z,31.40
2018-08-12T12:40:14.308Z,32.80
2018-08-12T12:42:43.927Z,32.50
2018-08-12T12:45:14.297Z,32.50
2018-08-12T12:47:43.320Z,31.40
2018-08-12T12:50:20.468Z,32.90
2018-08-12T12:52:49.906Z,30.80
2018-08-12T12:55:19.436Z,29.00
2018-08-12T12:57:48.203Z,29.50
2018-08-12T13:00:18.380Z,29.40
2018-08-12T13:05:18.424Z,28.60
2018-08-12T13:07:48.233Z,28.90
2018-08-12T13:10:17.530Z,29.10
2018-08-12T13:12:46.565Z,28.90
2018-08-12T13:15:16.327Z,29.20
2018-08-12T13:17:44.830Z,29.80
2018-08-12T13:20:18.226Z,28.50
2018-08-12T13:22:47.635Z,28.60
2018-08-12T13:25:18.043Z,28.60
2018-08-12T13:27:46.664Z,28.40
2018-08-12T13:30:16.193Z,28.60
2018-08-12T13:32:47.329Z,29.30
2018-08-12T13:35:15.993Z,28.40
2018-08-12T13:37:44.627Z,28.30
2018-08-12T13:40:15.354Z,28.80
2018-08-12T13:42:44.924Z,28.30
2018-08-12T13:47:43.359Z,27.10
2018-08-12T13:50:17.137Z,29.00
2018-08-12T13:52:48.716Z,28.20
2018-08-12T13:55:17.616Z,28.20
2018-08-12T13:57:46.673Z,27.30
2018-08-12T14:00:16.833Z,28.00
2018-08-12T14:02:45.564Z,28.60
2018-08-12T14:05:16.647Z,28.20
2018-08-12T14:07:45.627Z,28.80
2018-08-12T14:10:14.129Z,28.90
2018-08-12T14:12:46.063Z,28.00
2018-08-12T14:15:16.617Z,28.10
2018-08-12T14:17:46.173Z,28.70
2018-08-12T14:20:16.277Z,28.80
2018-08-12T14:25:14.081Z,28.00
2018-08-12T14:27:43.673Z,28.70
2018-08-12T14:35:11.965Z,28.70
2018-08-12T14:37:40.805Z,27.10
2018-08-12T14:40:11.051Z,28.50
2018-08-12T14:42:39.675Z,28.90
2018-08-12T14:45:09.684Z,28.40
2018-08-12T14:47:38.837Z,28.00
2018-08-12T14:50:10.202Z,26.80
2018-08-12T14:52:38.788Z,28.30
2018-08-12T14:55:08.104Z,29.20
2018-08-12T14:57:36.664Z,28.90
2018-08-12T15:00:14.333Z,26.50
2018-08-12T15:02:47.617Z,26.60
2018-08-12T15:05:16.211Z,28.40
2018-08-12T15:07:44.774Z,26.60
2018-08-12T15:10:13.605Z,28.00
2018-08-12T15:12:44.355Z,28.90
2018-08-12T15:15:14.273Z,28.50
2018-08-12T15:17:43.963Z,28.50
2018-08-12T15:20:13.369Z,26.20
2018-08-12T15:25:14.578Z,27.90
2018-08-12T15:27:43.117Z,28.90
2018-08-12T15:30:12.617Z,28.90
2018-08-12T15:32:41.873Z,28.80
2018-08-12T15:35:10.763Z,28.50
2018-08-12T15:37:40.086Z,28.50
2018-08-12T15:40:12.710Z,28.10
2018-08-12T15:42:41.952Z,27.90
2018-08-12T15:45:12.845Z,29.10
2018-08-12T15:47:42.103Z,29.20
2018-08-12T15:50:11.207Z,28.40
2018-08-12T15:52:40.371Z,28.90
2018-08-12T15:55:09.566Z,27.40
2018-08-12T15:57:38.110Z,28.10
2018-08-12T16:00:12.166Z,27.30
2018-08-12T16:02:40.875Z,27.50
2018-08-12T16:07:42.327Z,27.30
2018-08-12T16:15:27.683Z,28.10
2018-08-12T16:20:24.583Z,27.60
2018-08-12T16:22:54.580Z,26.20
2018-08-12T16:25:23.155Z,26.50
2018-08-12T16:27:51.809Z,27.80
2018-08-12T16:30:43.095Z,29.80
2018-08-12T16:36:03.940Z,27.80
2018-08-12T16:38:39.577Z,25.10
2018-08-12T16:41:15.317Z,27.60
2018-08-12T16:43:54.508Z,27.60
2018-08-12T16:46:34.229Z,28.50
2018-08-12T16:59:23.760Z,27.10
2018-08-12T17:01:52.296Z,27.60
2018-08-12T17:04:26.235Z,25.70
2018-08-12T17:07:04.919Z,26.50
2018-08-12T17:09:42.675Z,29.20
2018-08-12T17:17:12.052Z,26.50
2018-08-12T17:19:40.876Z,27.10
2018-08-12T17:22:09.915Z,26.80
2018-08-12T17:27:08.215Z,26.60
2018-08-12T17:29:36.910Z,26.50
2018-08-12T17:32:05.460Z,27.50
2018-08-12T17:34:34.063Z,26.00
2018-08-12T17:37:03.464Z,25.20
2018-08-12T17:39:32.012Z,24.40
2018-08-12T17:42:00.497Z,27.10
2018-08-12T17:44:29.793Z,26.80
2018-08-12T17:46:58.323Z,25.70
2018-08-12T17:49:26.842Z,26.40
2018-08-12T17:51:55.339Z,26.20
2018-08-12T17:54:24.985Z,26.20
2018-08-12T17:56:57.261Z,24.60
2018-08-12T18:02:04.779Z,25.60
2018-08-12T18:04:36.788Z,25.60
2018-08-12T18:07:07.649Z,25.30
2018-08-12T18:12:11.789Z,24.90
2018-08-12T18:22:51.099Z,23.60
2018-08-12T18:25:20.400Z,24.00
2018-08-12T18:27:49.069Z,24.80
2018-08-12T18:32:52.958Z,23.90
2018-08-12T18:37:50.915Z,23.60
2018-08-12T18:40:19.543Z,24.20
2018-08-12T18:42:48.944Z,24.00
2018-08-12T18:50:18.016Z,23.40
2018-08-12T18:52:46.574Z,23.60
2018-08-12T18:55:16.239Z,23.10
2018-08-12T19:00:14.344Z,23.40
2018-08-12T19:02:44.007Z,23.30
2018-08-12T19:05:14.735Z,22.70
2018-08-12T19:07:43.553Z,23.10
2018-08-12T19:10:12.550Z,21.40
2018-08-12T19:15:14.990Z,21.80
2018-08-12T19:17:43.722Z,21.80
2018-08-12T19:20:12.726Z,21.70
2018-08-12T19:27:42.704Z,22.40
2018-08-12T19:30:12.789Z,22.40
2018-08-12T19:37:40.061Z,21.90
2018-08-12T19:40:09.683Z,21.40
2018-08-12T19:42:40.068Z,21.60
2018-08-12T19:47:37.933Z,22.10
2018-08-12T19:55:05.470Z,20.80
2018-08-12T19:57:34.441Z,21.00
2018-08-12T20:07:33.416Z,20.90
2018-08-12T20:10:03.712Z,20.10
2018-08-12T20:12:32.360Z,21.50
2018-08-12T20:17:30.549Z,21.60
2018-08-12T20:19:59.873Z,21.30
2018-08-12T20:22:29.548Z,20.40
2018-08-12T20:27:28.864Z,20.60
2018-08-12T20:34:54.896Z,20.90
2018-08-12T20:39:51.933Z,20.90
2018-08-12T20:42:20.521Z,20.70
2018-08-12T20:47:17.205Z,21.60
2018-08-12T20:49:45.756Z,20.30
2018-08-12T20:54:43.760Z,20.40
2018-08-12T20:57:13.352Z,20.60
2018-08-12T20:59:42.039Z,20.80
2018-08-12T21:04:40.001Z,20.50
2018-08-12T21:07:09.017Z,20.20
2018-08-12T21:09:41.493Z,20.10
2018-08-12T21:12:10.226Z,20.50
2018-08-12T21:14:39.308Z,19.10
2018-08-12T21:17:07.906Z,20.30
2018-08-12T21:19:39.934Z,20.20
2018-08-12T21:22:08.471Z,19.50
2018-08-12T21:24:37.055Z,18.60
2018-08-12T21:27:05.711Z,19.80
2018-08-12T21:29:34.241Z,20.20
2018-08-12T21:32:02.854Z,19.10
2018-08-12T21:36:59.585Z,19.40
2018-08-12T21:39:27.933Z,20.70
2018-08-12T21:44:27.941Z,19.00
2018-08-12T21:49:24.609Z,18.60
2018-08-12T21:56:49.984Z,18.80
2018-08-12T22:01:46.817Z,19.10
2018-08-12T22:04:15.217Z,19.40
2018-08-12T22:06:43.803Z,19.40
2018-08-12T22:11:44.007Z,19.50
2018-08-12T22:14:12.724Z,18.50
2018-08-12T22:19:09.656Z,17.80
2018-08-12T22:26:36.886Z,18.30
2018-08-12T22:29:11.478Z,17.90
2018-08-12T22:31:40.690Z,18.90
2018-08-12T22:34:09.441Z,17.80
2018-08-12T22:36:40.586Z,18.50
2018-08-12T22:39:09.643Z,20.40
2018-08-12T22:41:38.148Z,18.70
2018-08-12T22:46:35.025Z,18.00
2018-08-12T22:49:03.557Z,18.50
2018-08-12T22:54:00.433Z,18.00
2018-08-12T22:56:28.992Z,19.40
2018-08-12T22:58:57.522Z,17.80
2018-08-12T23:01:26.254Z,18.90
2018-08-12T23:03:54.920Z,18.70
2018-08-12T23:06:23.546Z,18.00
2018-08-12T23:11:21.397Z,18.80
2018-08-12T23:13:50.101Z,18.40
2018-08-12T23:21:27.612Z,18.10
2018-08-12T23:23:56.868Z,18.40
2018-08-12T23:26:26.307Z,18.90
2018-08-12T23:34:02.040Z,19.00
2018-08-12T23:36:32.668Z,18.50
2018-08-12T23:39:01.921Z,19.20
2018-08-12T23:41:30.899Z,18.90
2018-08-12T23:43:59.439Z,21.20
2018-08-12T23:58:52.735Z,18.40
